createdAt,value
2019-02-08T00:01:28.451Z,77147.67
2019-02-08T00:03:59.998Z,77136.61
2019-02-08T00:06:31.463Z,77155.71
2019-02-08T00:09:02.733Z,77144.66
2019-02-08T00:11:34.081Z,77141.64
2019-02-08T00:14:05.466Z,77138.63
2019-02-08T00:16:36.732Z,77133.59
2019-02-08T00:19:08.126Z,77135.61
2019-02-08T00:21:40.635Z,77141.64
2019-02-08T00:24:11.819Z,77131.59
2019-02-08T00:26:43.130Z,77123.55
2019-02-08T00:29:14.353Z,77133.59
2019-02-08T00:31:45.779Z,77129.58
2019-02-08T00:34:17.002Z,77117.52
2019-02-08T00:36:48.505Z,77128.57
2019-02-08T00:39:19.912Z,77129.58
2019-02-08T00:41:51.602Z,77133.59
2019-02-08T00:44:22.848Z,77120.53
2019-02-08T00:46:54.129Z,77131.59
2019-02-08T00:49:25.539Z,77129.58
2019-02-08T00:51:58.222Z,77140.63
2019-02-08T00:54:29.537Z,77137.62
2019-02-08T00:57:00.821Z,77147.67
2019-02-08T00:59:32.061Z,77141.64
2019-02-08T01:02:03.357Z,77153.70
2019-02-08T01:04:34.622Z,77145.66
2019-02-08T01:07:05.968Z,77150.69
2019-02-08T01:09:40.916Z,77150.69
2019-02-08T01:12:12.472Z,77151.69
2019-02-08T01:14:43.723Z,77151.69
2019-02-08T01:17:18.103Z,77141.64
2019-02-08T01:19:49.327Z,77159.73
2019-02-08T01:22:24.686Z,77149.68
2019-02-08T01:24:55.904Z,77161.74
2019-02-08T01:27:28.898Z,77163.75
2019-02-08T01:30:00.221Z,77164.76
2019-02-08T01:32:33.389Z,77162.75
2019-02-08T01:35:05.849Z,77159.73
2019-02-08T01:37:37.191Z,77151.69
2019-02-08T01:40:13.123Z,77173.80
2019-02-08T01:42:46.113Z,77157.72
2019-02-08T01:45:21.262Z,77159.73
2019-02-08T01:47:52.748Z,77159.73
2019-02-08T01:50:27.280Z,77161.74
2019-02-08T01:53:00.351Z,77164.76
2019-02-08T01:55:31.878Z,77162.75
2019-02-08T01:58:03.405Z,77166.77
2019-02-08T02:00:40.874Z,77171.80
2019-02-08T02:03:13.130Z,77165.77
2019-02-08T02:05:44.839Z,77171.80
2019-02-08T02:08:15.987Z,77169.78
2019-02-08T02:10:47.775Z,77170.79
2019-02-08T02:13:19.150Z,77175.81
2019-02-08T02:15:50.441Z,77189.89
2019-02-08T02:18:21.607Z,77184.86
2019-02-08T02:20:52.859Z,77197.94
2019-02-08T02:23:26.162Z,77199.94
2019-02-08T02:25:57.434Z,77203.96
2019-02-08T02:28:28.697Z,77208.98
2019-02-08T02:30:59.945Z,77208.98
2019-02-08T02:33:31.218Z,77210.00
2019-02-08T02:36:02.581Z,77216.03
2019-02-08T02:38:33.828Z,77204.97
2019-02-08T02:41:05.023Z,77226.08
2019-02-08T02:43:36.390Z,77221.05
2019-02-08T02:46:07.714Z,77229.09
2019-02-08T02:48:38.972Z,77240.16
2019-02-08T02:51:10.270Z,77231.11
2019-02-08T02:53:44.962Z,77234.13
2019-02-08T02:56:16.318Z,77221.05
2019-02-08T02:58:47.604Z,77230.09
2019-02-08T03:01:18.943Z,77232.11
2019-02-08T03:03:50.172Z,77236.13
2019-02-08T03:06:21.375Z,77242.16
2019-02-08T03:08:52.657Z,77232.11
2019-02-08T03:11:23.920Z,77249.20
2019-02-08T03:13:55.157Z,77274.33
2019-02-08T03:16:26.616Z,77272.32
2019-02-08T03:18:57.947Z,77274.33
2019-02-08T03:21:29.319Z,77282.38
2019-02-08T03:24:03.766Z,77288.41
2019-02-08T03:26:34.983Z,77290.42
2019-02-08T03:29:06.285Z,77283.38
2019-02-08T03:31:37.571Z,77249.20
2019-02-08T03:34:08.995Z,77242.16
2019-02-08T03:36:40.318Z,77244.17
2019-02-08T03:39:11.726Z,77231.11
2019-02-08T03:41:42.988Z,77227.08
2019-02-08T03:44:14.302Z,77197.94
2019-02-08T03:46:45.510Z,77198.94
2019-02-08T03:49:16.974Z,77191.91
2019-02-08T03:51:48.267Z,77180.84
2019-02-08T03:54:21.288Z,77175.81
2019-02-08T03:56:52.410Z,77185.87
2019-02-08T03:59:23.818Z,77175.81
2019-02-08T04:01:55.145Z,77189.89
2019-02-08T04:04:26.390Z,77174.81
2019-02-08T04:06:57.801Z,77172.80
2019-02-08T04:09:29.107Z,77163.75
2019-02-08T04:12:00.460Z,77176.82
2019-02-08T04:14:31.836Z,77170.79
2019-02-08T04:17:03.064Z,77167.77
2019-02-08T04:19:34.351Z,77164.76
2019-02-08T04:22:05.763Z,77155.71
2019-02-08T04:24:37.065Z,77159.73
2019-02-08T04:27:08.403Z,77138.63
2019-02-08T04:29:39.669Z,77131.59
2019-02-08T04:32:13.676Z,77123.55
2019-02-08T04:34:45.009Z,77133.59
2019-02-08T04:37:16.257Z,77128.57
2019-02-08T04:39:47.543Z,77127.56
2019-02-08T04:42:18.820Z,77124.55
2019-02-08T04:44:50.283Z,77121.53
2019-02-08T04:47:21.558Z,77126.56
2019-02-08T04:49:52.997Z,77109.47
2019-02-08T04:52:24.531Z,77112.48
2019-02-08T04:54:55.982Z,77109.47
2019-02-08T04:57:27.485Z,77120.53
2019-02-08T04:59:58.944Z,77135.61
2019-02-08T05:02:30.427Z,77158.73
2019-02-08T05:05:01.850Z,77157.72
2019-02-08T05:07:33.563Z,77182.85
2019-02-08T05:10:06.761Z,77179.84
2019-02-08T05:12:38.270Z,77173.80
2019-02-08T05:15:10.607Z,77169.78
2019-02-08T05:17:42.116Z,77173.80
2019-02-08T05:20:16.066Z,77175.81
2019-02-08T05:22:47.452Z,77174.81
2019-02-08T05:25:20.042Z,77181.84
2019-02-08T05:27:52.708Z,77183.86
2019-02-08T05:30:30.968Z,77178.83
2019-02-08T05:33:02.845Z,77160.73
2019-02-08T05:35:34.223Z,77167.77
2019-02-08T05:38:05.895Z,77152.70
2019-02-08T05:40:37.396Z,77165.77
2019-02-08T05:43:08.795Z,77165.77
2019-02-08T05:45:40.165Z,77166.77
2019-02-08T05:48:11.538Z,77158.73
2019-02-08T05:50:42.874Z,77158.73
2019-02-08T05:53:14.456Z,77169.78
2019-02-08T05:55:45.888Z,77170.79
2019-02-08T05:58:17.190Z,77155.71
2019-02-08T06:00:58.268Z,77168.78
2019-02-08T06:03:29.774Z,77156.72
2019-02-08T06:06:01.367Z,77121.53
2019-02-08T06:08:32.709Z,77118.52
2019-02-08T06:11:03.993Z,77112.48
2019-02-08T06:13:37.708Z,77102.44
2019-02-08T06:16:09.466Z,77113.48
2019-02-08T06:18:40.802Z,77116.50
2019-02-08T06:21:12.422Z,77123.55
2019-02-08T06:23:43.785Z,77105.45
2019-02-08T06:26:15.240Z,77113.48
2019-02-08T06:28:46.623Z,77104.45
2019-02-08T06:31:17.991Z,77112.48
2019-02-08T06:33:49.279Z,77116.50
2019-02-08T06:36:20.588Z,77123.55
2019-02-08T06:38:51.868Z,77115.50
2019-02-08T06:41:23.152Z,77107.46
2019-02-08T06:43:54.421Z,77118.52
2019-02-08T06:46:26.568Z,77107.46
2019-02-08T06:48:57.881Z,77104.45
2019-02-08T06:51:29.101Z,77097.41
2019-02-08T06:54:00.332Z,77084.34
2019-02-08T06:56:49.262Z,77108.47
2019-02-08T06:59:33.932Z,77104.45
2019-02-08T07:02:39.320Z,77104.45
2019-02-08T07:05:33.348Z,77100.42
2019-02-08T07:08:35.543Z,77097.41
2019-02-08T07:11:24.629Z,77095.39
2019-02-08T07:14:14.622Z,77095.39
2019-02-08T07:17:13.577Z,77092.38
2019-02-08T07:20:12.565Z,77083.33
2019-02-08T07:22:54.807Z,77083.33
2019-02-08T07:25:43.568Z,77051.16
2019-02-08T07:28:23.739Z,77064.23
2019-02-08T07:31:13.718Z,77050.16
2019-02-08T07:34:10.025Z,77040.11
2019-02-08T07:36:50.842Z,77043.13
2019-02-08T07:39:45.633Z,77043.13
2019-02-08T07:42:34.891Z,77043.13
2019-02-08T07:45:17.148Z,77034.08
2019-02-08T07:48:05.086Z,77034.08
2019-02-08T07:50:44.526Z,77037.09
2019-02-08T07:53:37.760Z,77031.06
2019-02-08T07:56:34.066Z,77014.98
2019-02-08T07:59:15.634Z,77028.05
2019-02-08T08:02:04.669Z,77012.97
2019-02-08T08:05:04.430Z,77010.95
2019-02-08T08:08:00.359Z,77001.91
2019-02-08T08:10:50.537Z,77002.91
2019-02-08T08:13:27.750Z,76976.78
2019-02-08T08:16:16.727Z,76976.78
2019-02-08T08:19:02.833Z,76956.67
2019-02-08T08:21:51.739Z,76940.59
2019-02-08T08:24:47.833Z,76950.64
2019-02-08T08:27:48.239Z,76947.63
2019-02-08T08:30:34.059Z,76952.66
2019-02-08T08:33:21.833Z,76941.59
2019-02-08T08:36:54.253Z,76936.57
2019-02-08T08:40:23.732Z,76922.50
2019-02-08T08:43:53.618Z,76926.52
2019-02-08T08:47:10.095Z,76937.58
2019-02-08T08:50:23.436Z,76931.55
2019-02-08T08:54:15.962Z,76939.59
2019-02-08T08:57:27.079Z,76932.55
2019-02-08T09:00:54.117Z,76921.50
2019-02-08T09:04:39.479Z,76915.47
2019-02-08T09:08:23.319Z,76922.50
2019-02-08T09:12:00.794Z,76925.52
2019-02-08T09:15:35.968Z,76927.53
2019-02-08T09:18:54.913Z,76909.44
2019-02-08T09:22:09.529Z,76906.42
2019-02-08T09:25:50.329Z,76878.27
2019-02-08T09:29:20.315Z,76870.23
2019-02-08T09:32:38.447Z,76870.23
2019-02-08T09:35:53.379Z,76887.32
2019-02-08T09:39:18.552Z,76893.34
2019-02-08T09:42:49.936Z,76893.34
2019-02-08T09:46:15.422Z,76871.23
2019-02-08T09:49:40.825Z,76855.16
2019-02-08T09:53:18.645Z,76844.09
2019-02-08T09:56:51.895Z,76820.98
2019-02-08T10:00:17.520Z,76805.90
2019-02-08T10:04:03.290Z,76799.88
2019-02-08T10:07:37.573Z,76799.88
2019-02-08T10:10:58.840Z,76788.81
2019-02-08T10:14:23.735Z,76783.78
2019-02-08T10:18:01.698Z,76778.77
2019-02-08T10:21:38.116Z,76749.61
2019-02-08T10:25:35.053Z,76749.61
2019-02-08T10:28:52.344Z,76750.62
2019-02-08T10:32:15.979Z,76747.60
2019-02-08T10:35:51.777Z,76747.60
2019-02-08T10:39:23.466Z,76749.61
2019-02-08T10:42:50.548Z,76738.55
2019-02-08T10:46:17.196Z,76720.46
2019-02-08T10:50:10.256Z,76702.38
2019-02-08T10:53:53.313Z,76665.19
2019-02-08T10:57:04.306Z,76692.32
2019-02-08T11:00:34.924Z,76684.28
2019-02-08T11:04:10.724Z,76676.23
2019-02-08T11:07:43.275Z,76647.09
2019-02-08T11:11:29.249Z,76622.97
2019-02-08T11:15:10.314Z,76615.94
2019-02-08T11:18:38.815Z,76617.94
2019-02-08T11:21:10.154Z,76611.91
2019-02-08T11:23:41.416Z,76588.80
2019-02-08T11:26:13.484Z,76548.59
2019-02-08T11:28:44.935Z,76548.59
2019-02-08T11:31:16.313Z,76544.58
2019-02-08T11:33:47.606Z,76518.44
2019-02-08T11:36:18.942Z,76528.49
2019-02-08T11:38:50.188Z,76518.44
2019-02-08T11:41:21.610Z,76537.53
2019-02-08T11:43:52.917Z,76536.53
2019-02-08T11:46:24.246Z,76541.55
2019-02-08T11:48:55.641Z,76524.47
2019-02-08T11:51:26.974Z,76523.47
2019-02-08T11:53:58.383Z,76536.53
2019-02-08T11:56:30.181Z,76531.50
2019-02-08T11:59:01.516Z,76518.44
2019-02-08T12:01:38.475Z,76491.30
2019-02-08T12:04:10.672Z,76470.20
2019-02-08T12:06:42.082Z,76497.33
2019-02-08T12:09:18.982Z,76500.34
2019-02-08T12:11:50.268Z,76504.37
2019-02-08T12:14:21.537Z,76502.36
2019-02-08T12:16:52.811Z,76523.47
2019-02-08T12:19:24.026Z,76504.37
2019-02-08T12:21:56.146Z,76492.31
2019-02-08T12:24:27.442Z,76458.14
2019-02-08T12:26:59.939Z,76435.02
2019-02-08T12:29:31.420Z,76433.02
2019-02-08T12:32:02.716Z,76435.02
2019-02-08T12:34:34.079Z,76434.02
2019-02-08T12:37:05.829Z,76434.02
2019-02-08T12:39:37.140Z,76443.06
2019-02-08T12:42:08.485Z,76440.05
2019-02-08T12:44:39.812Z,76467.18
2019-02-08T12:47:11.136Z,76462.16
2019-02-08T12:49:42.500Z,76473.21
2019-02-08T12:52:13.900Z,76494.31
2019-02-08T12:54:45.267Z,76481.25
2019-02-08T12:57:16.639Z,76490.30
2019-02-08T12:59:49.623Z,76512.41
2019-02-08T13:02:20.961Z,76527.48
2019-02-08T13:04:52.212Z,76515.42
2019-02-08T13:07:23.571Z,76534.52
2019-02-08T13:09:54.915Z,76527.48
2019-02-08T13:12:26.179Z,76526.48
2019-02-08T13:14:57.468Z,76522.46
2019-02-08T13:17:28.645Z,76504.37
2019-02-08T13:19:59.967Z,76484.27
2019-02-08T13:22:31.262Z,76465.17
2019-02-08T13:25:02.591Z,76438.03
2019-02-08T13:27:33.815Z,76423.97
2019-02-08T13:30:06.806Z,76405.88
2019-02-08T13:32:38.071Z,76405.88
2019-02-08T13:35:09.647Z,76402.86
2019-02-08T13:37:44.122Z,76419.95
2019-02-08T13:40:16.776Z,76416.93
2019-02-08T13:42:47.960Z,76429.99
2019-02-08T13:45:20.644Z,76415.92
2019-02-08T13:47:52.077Z,76434.02
2019-02-08T13:50:25.558Z,76417.94
2019-02-08T13:52:56.735Z,76422.95
2019-02-08T13:55:28.813Z,76414.92
2019-02-08T13:58:00.067Z,76417.94
2019-02-08T14:00:35.171Z,76412.91
2019-02-08T14:03:07.182Z,76398.84
2019-02-08T14:05:41.170Z,76384.77
2019-02-08T14:08:12.421Z,76385.77
2019-02-08T14:10:43.726Z,76414.92
2019-02-08T14:13:14.970Z,76417.94
2019-02-08T14:15:46.392Z,76403.86
2019-02-08T14:18:17.711Z,76410.90
2019-02-08T14:20:48.978Z,76415.92
2019-02-08T14:23:20.308Z,76415.92
2019-02-08T14:25:51.599Z,76432.01
2019-02-08T14:28:22.867Z,76428.98
2019-02-08T14:30:54.417Z,76432.01
2019-02-08T14:33:25.698Z,76426.98
2019-02-08T14:35:59.502Z,76434.02
2019-02-08T14:38:30.823Z,76421.95
2019-02-08T14:41:02.202Z,76433.02
2019-02-08T14:43:33.498Z,76426.98
2019-02-08T14:46:05.305Z,76425.97
2019-02-08T14:48:36.560Z,76417.94
2019-02-08T14:51:07.725Z,76415.92
2019-02-08T14:53:39.028Z,76438.03
2019-02-08T14:56:10.472Z,76435.02
2019-02-08T14:58:41.790Z,76421.95
2019-02-08T15:01:13.034Z,76424.97
2019-02-08T15:03:44.409Z,76424.97
2019-02-08T15:06:15.677Z,76425.97
2019-02-08T15:08:47.042Z,76434.02
2019-02-08T15:11:18.389Z,76432.01
2019-02-08T15:13:49.737Z,76433.02
2019-02-08T15:16:21.233Z,76433.02
2019-02-08T15:18:52.488Z,76429.99
2019-02-08T15:21:23.830Z,76423.97
2019-02-08T15:23:56.440Z,76413.91
2019-02-08T15:26:28.037Z,76410.90
2019-02-08T15:28:59.331Z,76413.91
2019-02-08T15:31:30.706Z,76421.95
2019-02-08T15:34:02.128Z,76426.98
2019-02-08T15:36:36.491Z,76443.06
2019-02-08T15:39:12.750Z,76447.08
2019-02-08T15:41:44.142Z,76433.02
2019-02-08T15:44:15.382Z,76427.98
2019-02-08T15:46:46.812Z,76425.97
2019-02-08T15:49:18.032Z,76426.98
2019-02-08T15:51:49.451Z,76421.95
2019-02-08T15:54:20.854Z,76417.94
2019-02-08T15:56:52.180Z,76411.91
2019-02-08T15:59:23.454Z,76409.89
2019-02-08T16:01:54.673Z,76403.86
2019-02-08T16:04:26.384Z,76421.95
2019-02-08T16:06:57.677Z,76405.88
2019-02-08T16:09:29.034Z,76415.92
2019-02-08T16:12:00.265Z,76408.89
2019-02-08T16:14:32.872Z,76407.88
2019-02-08T16:17:04.248Z,76409.89
2019-02-08T16:19:35.566Z,76407.88
2019-02-08T16:22:07.467Z,76399.84
2019-02-08T16:24:38.768Z,76403.86
2019-02-08T16:27:10.277Z,76402.86
2019-02-08T16:29:41.526Z,76406.88
2019-02-08T16:32:12.847Z,76379.74
2019-02-08T16:34:44.106Z,76387.78
2019-02-08T16:37:15.549Z,76373.72
2019-02-08T16:39:48.281Z,76374.72
2019-02-08T16:42:19.671Z,76370.70
2019-02-08T16:44:50.979Z,76361.66
2019-02-08T16:47:22.295Z,76364.67
2019-02-08T16:49:53.549Z,76359.64
2019-02-08T16:52:24.942Z,76355.63
2019-02-08T16:54:56.209Z,76353.61
2019-02-08T16:57:27.519Z,76361.66
2019-02-08T16:59:58.778Z,76349.59
2019-02-08T17:02:30.130Z,76343.56
2019-02-08T17:05:01.413Z,76337.53
2019-02-08T17:07:32.718Z,76341.55
2019-02-08T17:10:05.482Z,76347.58
2019-02-08T17:12:36.809Z,76345.58
2019-02-08T17:15:09.953Z,76335.52
2019-02-08T17:17:41.376Z,76341.55
2019-02-08T17:20:30.190Z,76326.48
2019-02-08T17:23:01.630Z,76339.55
2019-02-08T17:25:33.130Z,76332.51
2019-02-08T17:28:05.713Z,76330.50
2019-02-08T17:30:37.338Z,76320.45
2019-02-08T17:33:10.151Z,76330.50
2019-02-08T17:35:44.275Z,76320.45
2019-02-08T17:38:15.516Z,76316.42
2019-02-08T17:40:48.489Z,76327.48
2019-02-08T17:43:19.749Z,76313.41
2019-02-08T17:45:51.097Z,76328.48
2019-02-08T17:48:22.343Z,76298.34
2019-02-08T17:50:53.662Z,76296.33
2019-02-08T17:53:24.947Z,76298.34
2019-02-08T17:56:00.283Z,76300.34
2019-02-08T17:58:31.618Z,76297.33
2019-02-08T18:01:03.780Z,76284.27
2019-02-08T18:03:35.154Z,76290.30
2019-02-08T18:06:06.401Z,76291.30
2019-02-08T18:08:37.768Z,76285.27
2019-02-08T18:11:09.028Z,76289.30
2019-02-08T18:13:40.547Z,76279.24
2019-02-08T18:16:11.972Z,76284.27
2019-02-08T18:18:43.247Z,76284.27
2019-02-08T18:21:14.602Z,76266.17
2019-02-08T18:23:45.867Z,76262.16
2019-02-08T18:26:17.140Z,76272.20
2019-02-08T18:28:48.577Z,76258.14
2019-02-08T18:31:19.775Z,76253.11
2019-02-08T18:33:54.041Z,76259.14
2019-02-08T18:36:25.479Z,76253.11
2019-02-08T18:38:57.361Z,76256.13
2019-02-08T18:41:28.794Z,76249.09
2019-02-08T18:44:00.134Z,76235.02
2019-02-08T18:46:31.369Z,76241.05
2019-02-08T18:49:02.781Z,76234.02
2019-02-08T18:51:34.116Z,76232.01
2019-02-08T18:54:05.333Z,76224.97
2019-02-08T18:56:36.612Z,76215.93
2019-02-08T18:59:08.073Z,76219.95
2019-02-08T19:01:39.469Z,76235.02
2019-02-08T19:04:10.878Z,76205.88
2019-02-08T19:06:42.137Z,76198.84
2019-02-08T19:09:13.587Z,76201.86
2019-02-08T19:11:44.935Z,76194.83
2019-02-08T19:14:16.287Z,76183.77
2019-02-08T19:16:47.595Z,76185.78
2019-02-08T19:19:18.910Z,76176.73
2019-02-08T19:21:51.148Z,76169.70
2019-02-08T19:24:22.516Z,76166.69
2019-02-08T19:26:53.744Z,76147.59
2019-02-08T19:29:25.053Z,76147.59
2019-02-08T19:31:56.293Z,76139.55
2019-02-08T19:34:27.666Z,76137.54
2019-02-08T19:36:58.979Z,76138.55
2019-02-08T19:39:30.298Z,76129.50
2019-02-08T19:42:01.606Z,76127.49
2019-02-08T19:44:32.941Z,76124.48
2019-02-08T19:47:04.313Z,76111.41
2019-02-08T19:49:35.636Z,76110.41
2019-02-08T19:52:07.555Z,76117.44
2019-02-08T19:54:38.865Z,76108.40
2019-02-08T19:57:10.231Z,76112.41
2019-02-08T19:59:41.604Z,76123.47
2019-02-08T20:02:13.087Z,76103.38
2019-02-08T20:04:44.535Z,76098.34
2019-02-08T20:07:15.845Z,76102.37
2019-02-08T20:09:47.572Z,76097.34
2019-02-08T20:12:18.993Z,76088.30
2019-02-08T20:14:50.163Z,76092.31
2019-02-08T20:17:21.481Z,76085.28
2019-02-08T20:19:52.931Z,76074.23
2019-02-08T20:22:24.269Z,76083.27
2019-02-08T20:24:55.626Z,76071.21
2019-02-08T20:27:26.898Z,76071.21
2019-02-08T20:29:58.219Z,76084.28
2019-02-08T20:32:29.605Z,76079.25
2019-02-08T20:35:00.904Z,76072.22
2019-02-08T20:37:32.134Z,76074.23
2019-02-08T20:40:03.543Z,76067.20
2019-02-08T20:42:34.849Z,76064.18
2019-02-08T20:45:07.932Z,76064.18
2019-02-08T20:47:39.293Z,76056.14
2019-02-08T20:50:10.863Z,76047.09
2019-02-08T20:52:42.266Z,76047.09
2019-02-08T20:55:13.961Z,76066.19
2019-02-08T20:57:45.306Z,76064.18
2019-02-08T21:00:32.767Z,76053.13
2019-02-08T21:03:06.821Z,76064.18
2019-02-08T21:05:38.480Z,76042.07
2019-02-08T21:08:10.575Z,76044.08
2019-02-08T21:10:42.516Z,76062.17
2019-02-08T21:13:14.321Z,76075.23
2019-02-08T21:15:45.991Z,76053.13
2019-02-08T21:18:17.304Z,76039.05
2019-02-08T21:20:50.310Z,76037.05
2019-02-08T21:23:23.091Z,76040.06
2019-02-08T21:25:54.609Z,76034.03
2019-02-08T21:28:25.827Z,76031.02
2019-02-08T21:30:57.074Z,76046.09
2019-02-08T21:33:28.635Z,76035.03
2019-02-08T21:35:59.893Z,76029.00
2019-02-08T21:38:31.302Z,76024.98
2019-02-08T21:41:02.647Z,76032.02
2019-02-08T21:43:34.027Z,76031.02
2019-02-08T21:46:05.347Z,76022.98
2019-02-08T21:48:36.741Z,76024.98
2019-02-08T21:51:08.255Z,76025.99
2019-02-08T21:53:39.586Z,76023.98
2019-02-08T21:56:11.184Z,76014.94
2019-02-08T21:58:42.460Z,76027.00
2019-02-08T22:01:13.733Z,76020.97
2019-02-08T22:03:45.023Z,76019.96
2019-02-08T22:06:16.299Z,76047.09
2019-02-08T22:08:47.695Z,76074.23
2019-02-08T22:11:19.012Z,76086.29
2019-02-08T22:13:50.271Z,76091.31
2019-02-08T22:16:21.643Z,76110.41
2019-02-08T22:18:52.937Z,76102.37
2019-02-08T22:21:24.371Z,76107.39
2019-02-08T22:23:55.593Z,76102.37
2019-02-08T22:26:26.947Z,76104.38
2019-02-08T22:28:58.225Z,76106.39
2019-02-08T22:31:29.445Z,76104.38
2019-02-08T22:34:00.765Z,76097.34
2019-02-08T22:36:32.029Z,76119.45
2019-02-08T22:39:04.120Z,76110.41
2019-02-08T22:41:35.406Z,76115.43
2019-02-08T22:44:07.008Z,76120.45
2019-02-08T22:46:38.240Z,76115.43
2019-02-08T22:49:09.454Z,76118.45
2019-02-08T22:51:42.005Z,76119.45
2019-02-08T22:54:13.456Z,76113.42
2019-02-08T22:56:47.534Z,76112.41
2019-02-08T22:59:22.047Z,76130.50
2019-02-08T23:01:53.596Z,76123.47
2019-02-08T23:04:24.823Z,76126.48
2019-02-08T23:06:56.111Z,76130.50
2019-02-08T23:09:27.524Z,76139.55
2019-02-08T23:11:58.894Z,76123.47
2019-02-08T23:14:30.193Z,76138.55
2019-02-08T23:17:01.579Z,76134.52
2019-02-08T23:19:32.960Z,76143.57
2019-02-08T23:22:04.348Z,76133.52
2019-02-08T23:24:35.648Z,76134.52
2019-02-08T23:27:06.927Z,76132.52
2019-02-08T23:29:38.212Z,76129.50
2019-02-08T23:32:09.610Z,76137.54
2019-02-08T23:34:41.839Z,76154.63
2019-02-08T23:37:13.133Z,76152.61
2019-02-08T23:39:44.421Z,76144.58
2019-02-08T23:42:15.731Z,76141.56
2019-02-08T23:44:47.147Z,76145.58
2019-02-08T23:47:18.470Z,76147.59
2019-02-08T23:49:49.822Z,76148.59
2019-02-08T23:52:21.135Z,76149.60
2019-02-08T23:54:52.351Z,76152.61
2019-02-08T23:57:23.647Z,76144.58
2019-02-08T23:59:54.915Z,76150.61
